Atlantic City, NJ

8:17 AM EDT on September 22, 2014 (GMT -0400)
AC Bar and Grill | Change Station
CLOSE
Current Station
Personal Weather Station
Location: Atlantic City, NJ
Elevation: 10 ft
Nearby Weather Stations

Elev 10 ft 39.36 °N, 74.43 °W | Updated 2 seconds ago

Clear
Clear
65.1 °F
Feels Like 65.1 °F
N
3.5
Wind Variable Wind from NW
Gusts 9.8 mph

Today
High -- | Low -- °F
--% Chance of Precip.
Yesterday
High -- | Low -- °F
Precip. -- in
6:45 AM 6:54 PM
Waning Crescent, 3% visible
Pressure 29.87 in
Visibility 10.0 miles
Clouds Clear
Dew Point 56 °F
Humidity 71%
Rainfall 0.00 in
Snow Depth Not available.
UV 1 out of 12
Pollen 3.60 out of 12
Air Quality Not available.
Flu Activity Not available.
METAR KACY 221154Z 27008KT 10SM CLR 17/12 A2987 RMK AO2 SLP114 70002 T01720117 10206 20161 51035

More Conditions Fewer Conditions

Pressure 29.87 in
Visibility 10.0 miles
Clouds Clear
Dew Point 56 °F
Humidity 71%
Rainfall 0.00 in
Snow Depth Not available.
UV 1 out of 12
Pollen 3.60 out of 12
Air Quality Not available.
Flu Activity Not available.
METAR KACY 221154Z 27008KT 10SM CLR 17/12 A2987 RMK AO2 SLP114 70002 T01720117 10206 20161 51035

More Conditions Fewer Conditions

10-Day Weather Forecast

Almanac

Astronomy

Sep. 22, 2014 Rise Set
Actual Time 6:45 AM EDT 6:54 PM EDT
Civil Twilight 6:18 AM EDT 7:21 PM EDT
Nautical Twilight 5:47 AM EDT 7:52 PM EDT
Astronomical Twilight 5:15 AM EDT 8:24 PM EDT
Moon 5:12 AM EDT 6:00 PM EDT
Length of Visible Light 13h 03m
Length of Day
12h 09m
Tomorrow will be 2m 33s shorter.
Waning Crescent, 3% of the Moon is Illuminated
Today
Waning Crescent
Sep 24
New
Oct 1
First Quarter
Oct 8
Full
Oct 15
Last Quarter

Today's Extremes

State Highs State Lows

Community

WunderPhotos

Upload Photos

1,755,417 photos uploaded!

WunderBlogs® & News

Nearby

Snow Depth

Station Depth Elevation
No new snow has been reported.

Earthquake Activity

City Distance Mag. Time & Date
No recent earthquake activity has been reported nearby.
Minimum magnitude displayed is 2.5.

Coastal Water Temperatures

Place Temperature
Atlantic City, NJ 71.1 °F

Nearby Weather Stations